Time;durP1;ratioP1;P1;durP2;ratioP2;P2;SDS_P1;SDS_P2;PMS_P1;PMS_P2;Temp;Humidity;BMP_temperature;BMP_pressure;BME280_temperature;BME280_humidity;BME280_pressure;Samples;Min_cycle;Max_cycle;Signal;HPM_P1;HPM_P2
2022/05/28 00:00:56;;;;;;;10.13;1.45;;;;;;;12.47;51.68;100866.09;5001849;28;20325;-68
2022/05/28 00:03:24;;;;;;;8.90;1.75;;;;;;;12.53;52.07;100871.13;5004771;28;20065;-68
2022/05/28 00:05:51;;;;;;;4.55;1.42;;;;;;;12.54;52.30;100870.19;5018005;28;20073;-67
2022/05/28 00:08:17;;;;;;;11.25;2.10;;;;;;;12.45;52.29;100853.81;5026891;28;20453;-69
2022/05/28 00:10:47;;;;;;;5.90;1.52;;;;;;;12.50;52.34;100873.06;5027525;28;20136;-69
2022/05/28 00:13:13;;;;;;;9.43;2.17;;;;;;;12.40;52.97;100861.16;5030148;28;20053;-69
2022/05/28 00:15:41;;;;;;;7.70;1.70;;;;;;;12.36;52.56;100852.47;5027496;28;20069;-68
2022/05/28 00:18:09;;;;;;;6.13;1.73;;;;;;;12.54;52.72;100858.72;5026881;28;20133;-67
2022/05/28 00:20:37;;;;;;;6.93;1.45;;;;;;;12.61;52.51;100853.00;5027345;28;20053;-68
2022/05/28 00:23:04;;;;;;;5.78;1.58;;;;;;;12.58;52.85;100857.63;5029284;28;20045;-68
2022/05/28 00:25:30;;;;;;;9.88;1.48;;;;;;;12.43;53.43;100855.72;5032630;28;20132;-69
2022/05/28 00:27:57;;;;;;;8.43;1.73;;;;;;;12.03;53.69;100793.84;5033047;28;20113;-68
2022/05/28 00:30:24;;;;;;;13.95;1.83;;;;;;;12.46;53.55;100855.53;5025466;28;20088;-69
2022/05/28 00:32:51;;;;;;;7.82;1.42;;;;;;;12.37;53.24;100846.22;5028831;28;20049;-68
2022/05/28 00:35:19;;;;;;;5.68;1.48;;;;;;;12.28;53.89;100850.16;5025853;28;20053;-68
2022/05/28 00:37:47;;;;;;;8.38;1.63;;;;;;;12.06;54.05;100827.34;5015093;28;20049;-69
2022/05/28 00:40:21;;;;;;;7.72;1.90;;;;;;;12.17;54.69;100854.25;5025390;28;20129;-69
2022/05/28 00:42:48;;;;;;;7.57;1.70;;;;;;;12.16;54.60;100848.06;5026012;28;20065;-67
2022/05/28 00:45:15;;;;;;;4.35;1.25;;;;;;;12.10;54.48;100843.06;5025784;28;20056;-68
2022/05/28 00:47:49;;;;;;;7.07;1.63;;;;;;;12.16;54.80;100853.38;5025149;28;20565;-69
2022/05/28 00:50:17;;;;;;;7.07;1.95;;;;;;;12.15;54.40;100848.16;5031278;28;20528;-68
2022/05/28 00:52:45;;;;;;;9.27;1.38;;;;;;;12.11;54.42;100838.63;5030465;28;20045;-68
2022/05/28 00:55:13;;;;;;;6.40;1.80;;;;;;;12.16;54.48;100847.22;5027028;28;20143;-68
2022/05/28 00:57:41;;;;;;;8.52;1.75;;;;;;;12.12;54.85;100849.13;5031303;28;20053;-68
2022/05/28 01:00:13;;;;;;;10.88;1.95;;;;;;;11.92;55.29;100841.25;5031332;28;20057;-68
2022/05/28 01:02:43;;;;;;;6.80;1.42;;;;;;;11.93;55.55;100856.25;5030627;28;20054;-68
2022/05/28 01:05:17;;;;;;;4.93;1.75;;;;;;;11.93;55.90;100856.25;5026477;28;20123;-68
2022/05/28 01:07:53;;;;;;;7.63;1.77;;;;;;;11.88;55.62;100851.13;5029279;28;20506;-69
2022/05/28 01:10:46;;;;;;;7.45;1.60;;;;;;;11.98;55.18;100840.94;5015217;28;20136;-68
2022/05/28 01:13:15;;;;;;;7.78;1.90;;;;;;;11.86;55.93;100853.00;5027880;28;20077;-69
2022/05/28 01:15:46;;;;;;;7.05;1.58;;;;;;;11.80;55.78;100855.09;5024983;28;20053;-68
2022/05/28 01:18:19;;;;;;;5.50;1.50;;;;;;;11.82;55.98;100853.19;5024190;28;20061;-67
2022/05/28 01:20:59;;;;;;;7.05;1.50;;;;;;;11.69;56.39;100838.72;5024197;28;20493;-67
2022/05/28 01:23:37;;;;;;;4.97;1.20;;;;;;;11.78;56.32;100843.66;5023146;28;20179;-67
2022/05/28 01:26:32;;;;;;;6.78;1.40;;;;;;;11.78;56.16;100846.31;5025780;28;20129;-68
2022/05/28 01:29:04;;;;;;;8.55;1.77;;;;;;;11.75;56.20;100827.84;5023195;28;20500;-67
2022/05/28 01:31:33;;;;;;;9.10;1.85;;;;;;;11.70;56.14;100819.22;5027312;28;21142;-67
2022/05/28 01:34:04;;;;;;;8.70;1.48;;;;;;;11.70;56.87;100832.50;5026113;28;20561;-68
2022/05/28 01:36:32;;;;;;;6.60;2.05;;;;;;;11.73;57.27;100832.34;5023247;28;20075;-68
2022/05/28 01:39:00;;;;;;;8.40;1.60;;;;;;;11.84;56.86;100840.72;5029060;28;20110;-68
2022/05/28 01:41:29;;;;;;;6.57;1.35;;;;;;;11.81;57.05;100832.91;5027103;28;20054;-68
2022/05/28 01:43:57;;;;;;;9.43;1.83;;;;;;;11.73;56.99;100819.94;5023356;28;20092;-69
2022/05/28 01:46:28;;;;;;;9.32;1.65;;;;;;;11.82;57.08;100831.97;5024514;28;20064;-69
2022/05/28 01:48:57;;;;;;;5.05;1.35;;;;;;;11.79;57.62;100830.34;5031785;28;20146;-69
2022/05/28 01:51:28;;;;;;;8.30;2.05;;;;;;;11.80;57.44;100823.25;5024425;28;20053;-69
2022/05/28 01:54:09;;;;;;;10.32;1.67;;;;;;;11.74;57.32;100828.78;5022052;28;20525;-68
2022/05/28 01:56:38;;;;;;;11.15;2.00;;;;;;;11.55;57.79;100816.31;5025119;28;20041;-67
2022/05/28 01:59:05;;;;;;;10.05;2.00;;;;;;;11.52;58.04;100815.59;5025335;28;20053;-68
2022/05/28 02:01:31;;;;;;;5.13;1.20;;;;;;;11.46;58.15;100814.09;5035834;28;20049;-68
2022/05/28 02:04:05;;;;;;;9.55;1.60;;;;;;;11.44;58.40;100829.22;5033128;28;20519;-68
2022/05/28 02:06:34;;;;;;;9.02;1.98;;;;;;;11.32;58.91;100831.53;5026682;28;20105;-68
2022/05/28 02:09:08;;;;;;;5.20;1.70;;;;;;;11.08;59.36;100806.91;5026927;28;20642;-69
2022/05/28 02:12:06;;;;;;;6.43;1.92;;;;;;;11.15;59.66;100826.94;5022176;28;20129;-70
2022/05/28 02:14:56;;;;;;;6.55;1.60;;;;;;;11.17;60.22;100827.75;5025794;28;20115;-68
2022/05/28 02:17:38;;;;;;;11.10;1.98;;;;;;;11.08;59.53;100817.53;5024976;28;20228;-69
2022/05/28 02:20:27;;;;;;;7.90;1.52;;;;;;;11.06;59.85;100820.22;5024816;28;20057;-68
2022/05/28 02:23:26;;;;;;;7.88;1.30;;;;;;;11.03;60.09;100811.53;5028018;28;20061;-69
2022/05/28 02:26:15;;;;;;;9.68;1.40;;;;;;;11.15;59.77;100808.41;5027621;28;20107;-68
2022/05/28 02:28:44;;;;;;;8.70;1.35;;;;;;;11.23;59.25;100814.22;5027208;28;20490;-69
2022/05/28 02:31:16;;;;;;;6.43;1.40;;;;;;;11.26;59.33;100808.78;5031592;28;20049;-67
2022/05/28 02:33:44;;;;;;;9.68;1.73;;;;;;;11.17;59.76;100811.84;5023686;28;20141;-67
2022/05/28 02:36:16;;;;;;;6.03;1.30;;;;;;;11.09;59.90;100809.50;5034519;28;20128;-68
2022/05/28 02:38:44;;;;;;;9.10;1.70;;;;;;;11.09;59.67;100812.16;5028512;28;20111;-68
2022/05/28 02:41:11;;;;;;;7.95;2.08;;;;;;;11.05;59.45;100820.28;5027563;28;20095;-68
2022/05/28 02:43:38;;;;;;;9.13;1.65;;;;;;;11.00;59.36;100819.66;5030795;28;20073;-69
2022/05/28 02:46:06;;;;;;;8.38;1.45;;;;;;;10.99;59.87;100818.78;5028652;28;20128;-68
2022/05/28 02:48:33;;;;;;;9.13;1.80;;;;;;;10.96;59.53;100823.34;5027570;28;20096;-68
2022/05/28 02:51:14;;;;;;;8.77;1.75;;;;;;;10.93;59.36;100820.81;5030542;28;20052;-68
2022/05/28 02:53:41;;;;;;;6.50;1.60;;;;;;;10.88;59.72;100823.66;5029122;28;20057;-67
2022/05/28 02:56:09;;;;;;;6.32;1.33;;;;;;;10.74;59.50;100805.69;5028436;28;20144;-68
2022/05/28 02:58:37;;;;;;;8.23;1.30;;;;;;;10.82;60.08;100822.13;5028236;28;20132;-67
2022/05/28 03:01:17;;;;;;;7.10;1.50;;;;;;;10.78;59.93;100825.81;5020883;28;20553;-68
2022/05/28 03:03:44;;;;;;;6.55;1.80;;;;;;;10.65;59.94;100799.91;5029941;28;20417;-67
2022/05/28 03:06:10;;;;;;;7.45;1.40;;;;;;;10.79;59.62;100814.31;5027801;28;20045;-68
2022/05/28 03:08:38;;;;;;;7.13;1.90;;;;;;;10.80;59.73;100817.81;5031382;28;20119;-68
2022/05/28 03:11:04;;;;;;;6.95;1.50;;;;;;;10.86;59.66;100820.22;5022574;28;20061;-67
2022/05/28 03:13:31;;;;;;;8.40;1.40;;;;;;;10.87;59.43;100816.63;5029778;28;20131;-67
2022/05/28 03:15:57;;;;;;;7.55;1.63;;;;;;;10.84;59.58;100804.38;5029667;28;20140;-68
2022/05/28 03:18:24;;;;;;;8.63;1.65;;;;;;;10.85;59.19;100821.16;5025036;28;20084;-67
2022/05/28 03:20:51;;;;;;;5.45;1.35;;;;;;;10.82;59.51;100814.19;5025541;28;20505;-68
2022/05/28 03:23:17;;;;;;;4.78;1.75;;;;;;;10.85;59.33;100819.38;5030118;28;20136;-68
2022/05/28 03:25:44;;;;;;;8.88;1.73;;;;;;;10.90;59.18;100819.16;5022944;28;20052;-68
2022/05/28 03:28:11;;;;;;;8.05;1.60;;;;;;;10.87;59.23;100804.22;5028397;28;20045;-68
2022/05/28 03:30:37;;;;;;;7.63;1.60;;;;;;;10.85;59.13;100792.88;5023861;28;20065;-68
2022/05/28 03:33:04;;;;;;;8.40;1.80;;;;;;;11.00;59.22;100812.56;5022544;28;20129;-67
2022/05/28 03:35:31;;;;;;;6.05;1.25;;;;;;;11.03;59.17;100808.88;5025067;28;20038;-67
2022/05/28 03:37:59;;;;;;;7.03;1.58;;;;;;;11.08;58.62;100806.91;5022838;28;20053;-68
2022/05/28 03:40:26;;;;;;;8.93;1.67;;;;;;;10.98;58.91;100800.28;5028702;28;20146;-67
2022/05/28 03:42:53;;;;;;;8.85;1.55;;;;;;;11.07;59.14;100815.78;5031414;28;20127;-67
2022/05/28 03:45:19;;;;;;;6.00;1.52;;;;;;;11.00;59.03;100807.25;5017421;28;20060;-67
2022/05/28 03:47:46;;;;;;;6.70;1.23;;;;;;;11.10;58.99;100819.19;5028519;28;20107;-67
2022/05/28 03:50:12;;;;;;;7.00;2.22;;;;;;;11.10;59.00;100816.53;5024541;28;20599;-67
2022/05/28 03:52:39;;;;;;;7.53;1.55;;;;;;;11.10;58.92;100813.88;5025501;28;20195;-68
2022/05/28 03:55:06;;;;;;;8.07;1.45;;;;;;;11.16;59.34;100823.38;5026182;28;20053;-68
2022/05/28 03:57:33;;;;;;;7.70;1.70;;;;;;;11.22;59.16;100812.50;5034988;28;20095;-67
2022/05/28 04:00:01;;;;;;;9.18;1.55;;;;;;;11.40;58.62;100817.00;5018898;28;20596;-68
2022/05/28 04:02:27;;;;;;;5.82;1.50;;;;;;;11.50;58.30;100813.00;5026342;28;20111;-68
2022/05/28 04:04:54;;;;;;;6.40;1.77;;;;;;;11.47;58.27;100825.56;5029626;28;20058;-68
2022/05/28 04:07:21;;;;;;;4.93;1.38;;;;;;;11.37;58.77;100827.72;5029252;28;20053;-67
2022/05/28 04:09:48;;;;;;;8.10;1.70;;;;;;;11.42;58.73;100817.81;5023295;28;20115;-68
2022/05/28 04:12:15;;;;;;;7.47;1.50;;;;;;;11.46;58.73;100835.31;5022577;28;20495;-68
2022/05/28 04:14:41;;;;;;;6.68;1.52;;;;;;;11.40;59.02;100822.31;5026944;28;20053;-68
2022/05/28 04:17:08;;;;;;;10.05;1.55;;;;;;;11.34;58.38;100832.31;5026105;28;20136;-67
2022/05/28 04:19:38;;;;;;;5.85;1.67;;;;;;;11.25;59.31;100837.09;5024283;28;20137;-68
2022/05/28 04:22:05;;;;;;;11.75;2.50;;;;;;;11.19;59.56;100832.03;5027629;28;20053;-68
2022/05/28 04:24:32;;;;;;;6.55;1.48;;;;;;;11.26;58.98;100848.56;5026435;28;20286;-69
2022/05/28 04:26:59;;;;;;;10.20;1.70;;;;;;;11.36;59.58;100841.06;5026800;28;20055;-67
2022/05/28 04:29:25;;;;;;;7.93;1.50;;;;;;;11.45;59.50;100841.53;5023018;28;20140;-67
2022/05/28 04:31:52;;;;;;;6.07;1.40;;;;;;;11.48;58.27;100827.28;5028853;28;20053;-67
2022/05/28 04:34:19;;;;;;;6.03;1.50;;;;;;;11.45;58.78;100830.06;5030354;28;20073;-67
2022/05/28 04:36:46;;;;;;;5.25;1.63;;;;;;;11.49;58.73;100829.84;5007352;28;20111;-68
2022/05/28 04:39:13;;;;;;;6.55;1.60;;;;;;;11.60;58.88;100832.91;5025395;28;20073;-68
2022/05/28 04:41:40;;;;;;;5.45;1.75;;;;;;;11.63;58.35;100828.41;5029027;28;20059;-68
2022/05/28 04:44:06;;;;;;;5.82;1.48;;;;;;;11.72;58.14;100833.28;5021481;28;20400;-69
2022/05/28 04:46:33;;;;;;;7.53;1.25;;;;;;;11.66;58.39;100838.84;5018632;28;20038;-68
2022/05/28 04:49:00;;;;;;;7.65;1.60;;;;;;;11.66;58.68;100837.06;5025791;28;20192;-69
2022/05/28 04:51:26;;;;;;;7.07;1.58;;;;;;;11.69;57.87;100825.47;5022621;28;20041;-68
2022/05/28 04:53:53;;;;;;;9.02;1.80;;;;;;;11.78;57.80;100841.88;4997306;28;20056;-69
2022/05/28 04:56:19;;;;;;;6.38;1.25;;;;;;;11.80;58.79;100849.78;5021118;28;20057;-69
2022/05/28 04:58:47;;;;;;;7.78;1.85;;;;;;;11.75;58.44;100852.59;5023122;28;20136;-67
2022/05/28 05:01:16;;;;;;;8.93;1.70;;;;;;;11.81;58.46;100852.34;5025825;28;20060;-69
2022/05/28 05:03:43;;;;;;;7.00;1.48;;;;;;;11.89;58.27;100852.88;5022330;28;20061;-68
2022/05/28 05:06:10;;;;;;;7.43;2.03;;;;;;;11.97;57.69;100860.47;5024134;28;20085;-67
2022/05/28 05:08:41;;;;;;;6.43;1.63;;;;;;;12.02;57.41;100845.19;5025059;28;20063;-69
2022/05/28 05:11:08;;;;;;;8.15;1.80;;;;;;;12.18;57.28;100848.00;5023020;28;20671;-68
2022/05/28 05:13:35;;;;;;;6.70;2.08;;;;;;;12.17;56.56;100817.94;5027014;28;20476;-68
2022/05/28 05:16:07;;;;;;;4.80;1.50;;;;;;;12.23;56.46;100833.59;5024821;28;20065;-68
2022/05/28 05:18:34;;;;;;;8.95;1.75;;;;;;;12.34;56.24;100848.16;5024972;28;20049;-72
2022/05/28 05:21:01;;;;;;;8.45;1.88;;;;;;;12.32;56.63;100847.38;5024951;28;20081;-68
2022/05/28 05:23:27;;;;;;;8.68;1.75;;;;;;;12.23;57.36;100844.22;5015981;28;20532;-69
2022/05/28 05:25:54;;;;;;;6.30;1.85;;;;;;;12.15;57.68;100845.50;5028246;28;20045;-68
2022/05/28 05:28:21;;;;;;;6.88;1.50;;;;;;;12.16;57.28;100837.47;5023402;28;20500;-68
2022/05/28 05:30:47;;;;;;;8.50;1.63;;;;;;;12.12;56.76;100830.56;5024197;28;20390;-69
2022/05/28 05:33:14;;;;;;;8.00;1.77;;;;;;;12.29;56.81;100846.56;5024893;28;20482;-69
2022/05/28 05:35:41;;;;;;;7.57;2.38;;;;;;;12.40;56.55;100840.78;5022776;28;20149;-68
2022/05/28 05:38:11;;;;;;;6.43;1.70;;;;;;;12.48;56.65;100840.41;5025532;28;20442;-68
2022/05/28 05:40:38;;;;;;;6.75;1.60;;;;;;;12.53;56.51;100836.59;5026944;28;20470;-68
2022/05/28 05:43:06;;;;;;;8.98;1.65;;;;;;;12.65;56.89;100841.31;5012213;28;20091;-68
2022/05/28 05:45:33;;;;;;;8.88;1.73;;;;;;;12.71;55.66;100845.47;5027914;28;20139;-68
2022/05/28 05:47:59;;;;;;;7.43;1.85;;;;;;;12.78;56.32;100846.03;5022918;28;20053;-68
2022/05/28 05:50:26;;;;;;;6.38;1.80;;;;;;;12.55;55.80;100791.38;5027175;28;20815;-70
2022/05/28 05:52:53;;;;;;;9.20;2.00;;;;;;;12.86;55.93;100827.91;5026930;28;20050;-68
2022/05/28 05:55:20;;;;;;;6.95;1.80;;;;;;;13.08;56.06;100847.16;5026718;28;20053;-69
2022/05/28 05:57:47;;;;;;;10.68;1.95;;;;;;;12.91;56.29;100841.81;5026649;28;20053;-70
2022/05/28 06:00:14;;;;;;;8.85;1.80;;;;;;;12.98;56.43;100844.13;5017866;28;20053;-69
2022/05/28 06:02:41;;;;;;;6.95;1.55;;;;;;;13.13;55.54;100837.16;5025584;28;20672;-69
2022/05/28 06:05:08;;;;;;;8.05;1.92;;;;;;;13.15;54.10;100842.44;5026152;28;20065;-68
2022/05/28 06:07:36;;;;;;;6.78;1.48;;;;;;;13.20;54.45;100827.13;5029396;28;20095;-68
2022/05/28 06:10:02;;;;;;;10.57;2.00;;;;;;;13.46;53.92;100837.28;5028410;28;20064;-70
2022/05/28 06:12:29;;;;;;;8.27;2.13;;;;;;;13.51;53.82;100839.72;5036244;28;20394;-67
2022/05/28 06:14:56;;;;;;;9.18;1.50;;;;;;;13.34;54.32;100832.59;5029783;28;20080;-68
2022/05/28 06:17:22;;;;;;;6.25;1.65;;;;;;;13.24;54.43;100807.38;5027680;28;20592;-68
2022/05/28 06:19:51;;;;;;;9.90;1.75;;;;;;;13.37;53.99;100828.94;5029408;28;20427;-67
2022/05/28 06:22:18;;;;;;;8.75;1.83;;;;;;;13.49;54.75;100825.63;5024613;28;20498;-68
2022/05/28 06:24:45;;;;;;;9.32;1.67;;;;;;;13.25;54.75;100803.78;5026580;28;20053;-68
2022/05/28 06:27:13;;;;;;;8.93;1.80;;;;;;;13.51;54.43;100818.41;5022481;28;20120;-67
2022/05/28 06:29:40;;;;;;;9.90;1.92;;;;;;;13.42;54.71;100822.41;5030145;28;20056;-67
2022/05/28 06:32:06;;;;;;;12.60;2.05;;;;;;;13.21;55.27;100827.06;5035162;28;20123;-68
2022/05/28 06:34:34;;;;;;;8.68;2.00;;;;;;;13.23;55.65;100825.16;5026089;28;20045;-68
2022/05/28 06:37:01;;;;;;;10.07;2.10;;;;;;;13.01;55.90;100824.50;5029902;28;20125;-68
2022/05/28 06:39:28;;;;;;;5.15;1.63;;;;;;;12.94;56.75;100831.91;5031925;28;20516;-68
2022/05/28 06:41:54;;;;;;;9.80;2.13;;;;;;;13.02;57.16;100830.69;5026243;28;20096;-68
2022/05/28 06:44:21;;;;;;;11.52;1.92;;;;;;;13.12;57.27;100826.59;5029027;28;20064;-68
2022/05/28 06:46:48;;;;;;;11.50;1.80;;;;;;;13.20;56.49;100821.81;5019404;28;20096;-70
2022/05/28 06:49:15;;;;;;;5.95;1.80;;;;;;;13.43;56.31;100829.44;5017155;28;20073;-70
2022/05/28 06:51:42;;;;;;;9.38;1.70;;;;;;;13.44;55.94;100831.16;5033040;28;20053;-67
2022/05/28 06:54:08;;;;;;;12.75;2.22;;;;;;;13.39;55.94;100833.19;5021433;28;20053;-67
2022/05/28 06:56:35;;;;;;;8.90;2.05;;;;;;;13.49;56.52;100838.91;5022949;28;20049;-68
2022/05/28 06:59:03;;;;;;;8.23;2.08;;;;;;;13.66;55.95;100833.59;5028724;28;20120;-68
2022/05/28 07:01:35;;;;;;;9.75;2.05;;;;;;;13.66;56.30;100831.78;5027108;28;20517;-67
2022/05/28 07:04:02;;;;;;;7.95;2.13;;;;;;;13.44;56.61;100806.38;5022366;28;20136;-67
2022/05/28 07:06:31;;;;;;;6.13;2.17;;;;;;;13.54;56.83;100812.91;5021990;28;20112;-67
2022/05/28 07:08:58;;;;;;;8.10;1.42;;;;;;;13.61;56.88;100812.53;5027517;28;20045;-68
2022/05/28 07:11:25;;;;;;;10.60;1.80;;;;;;;13.67;56.75;100825.53;5027460;28;20501;-68
2022/05/28 07:13:52;;;;;;;9.30;1.98;;;;;;;13.66;56.29;100828.25;5025837;28;20115;-68
2022/05/28 07:16:18;;;;;;;9.40;1.67;;;;;;;13.79;55.68;100828.47;5021647;28;20119;-69
2022/05/28 07:18:45;;;;;;;6.03;1.50;;;;;;;13.77;55.28;100817.91;5032473;28;20045;-70
2022/05/28 07:21:12;;;;;;;9.70;2.22;;;;;;;13.92;54.25;100832.19;5028419;28;20067;-67
2022/05/28 07:23:39;;;;;;;6.43;1.33;;;;;;;13.87;54.63;100832.41;5026189;28;20052;-68
2022/05/28 07:26:09;;;;;;;4.85;1.20;;;;;;;13.96;54.74;100831.09;5021395;28;20095;-69
2022/05/28 07:28:38;;;;;;;5.82;1.30;;;;;;;14.05;53.27;100834.09;5026513;28;20046;-68
2022/05/28 07:31:07;;;;;;;7.22;1.23;;;;;;;13.95;52.02;100813.38;5026714;28;20049;-67
2022/05/28 07:33:38;;;;;;;4.43;1.27;;;;;;;14.07;51.46;100834.00;5026225;28;20310;-66
2022/05/28 07:36:06;;;;;;;3.75;1.00;;;;;;;14.01;51.92;100821.03;5022969;28;20057;-69
2022/05/28 07:38:35;;;;;;;5.45;1.10;;;;;;;13.99;51.15;100806.97;5027423;28;20445;-67
2022/05/28 07:41:09;;;;;;;3.70;1.00;;;;;;;14.14;52.02;100827.44;5006558;28;20108;-67
2022/05/28 07:43:36;;;;;;;6.25;1.10;;;;;;;14.27;51.49;100820.47;5024804;28;20100;-67
2022/05/28 07:46:10;;;;;;;4.70;1.10;;;;;;;14.32;50.38;100837.03;5026644;28;20053;-67
2022/05/28 07:48:37;;;;;;;4.78;1.00;;;;;;;14.38;49.02;100826.06;5018687;28;20049;-68
2022/05/28 07:51:06;;;;;;;3.60;0.68;;;;;;;14.51;49.62;100820.06;5031533;28;20049;-67
2022/05/28 07:53:32;;;;;;;4.88;0.77;;;;;;;14.62;49.75;100821.19;5023268;28;20506;-67
2022/05/28 07:56:01;;;;;;;4.38;0.75;;;;;;;14.63;48.77;100806.94;5025209;28;20049;-67
2022/05/28 07:58:30;;;;;;;3.53;0.90;;;;;;;14.72;49.24;100814.38;5024642;28;20045;-68
2022/05/28 08:00:57;;;;;;;8.05;1.08;;;;;;;14.64;49.99;100810.41;5021344;28;20077;-68
2022/05/28 08:03:24;;;;;;;5.25;1.20;;;;;;;14.63;50.72;100808.72;5024089;28;20081;-68
2022/05/28 08:05:53;;;;;;;4.80;1.10;;;;;;;14.74;49.78;100809.81;5024306;28;20456;-69
2022/05/28 08:08:21;;;;;;;6.55;1.20;;;;;;;14.63;49.82;100811.41;5023991;28;20111;-68
2022/05/28 08:10:49;;;;;;;4.28;1.23;;;;;;;14.52;50.31;100805.78;5019831;28;20045;-67
2022/05/28 08:13:19;;;;;;;4.30;1.15;;;;;;;14.32;50.56;100777.59;5020488;28;20701;-67
2022/05/28 08:15:48;;;;;;;10.20;1.50;;;;;;;14.47;50.75;100807.88;5020697;28;20104;-68
2022/05/28 08:18:17;;;;;;;4.93;1.00;;;;;;;14.61;49.67;100803.47;5023013;28;20532;-68
2022/05/28 08:23:30;;;;;;;2.28;1.27;;;;;;;14.97;49.08;100787.13;5022296;28;20049;-68
2022/05/28 08:25:56;;;;;;;5.53;1.20;;;;;;;15.21;48.50;100805.31;5026234;28;20073;-67
2022/05/28 08:28:23;;;;;;;5.20;1.38;;;;;;;15.08;48.78;100810.53;5019977;28;20086;-67
2022/05/28 08:30:49;;;;;;;6.38;1.70;;;;;;;14.91;49.36;100810.66;5021395;28;20144;-67
2022/05/28 08:33:18;;;;;;;4.55;1.42;;;;;;;14.97;49.39;100804.94;5008224;28;20108;-68
2022/05/28 08:35:46;;;;;;;4.97;1.40;;;;;;;15.05;50.07;100814.22;5030342;28;20072;-68
2022/05/28 08:38:16;;;;;;;6.38;1.77;;;;;;;15.15;49.56;100811.00;5028042;28;20049;-67
2022/05/28 08:41:01;;;;;;;5.70;1.63;;;;;;;15.38;49.65;100813.19;5022324;28;20055;-68
2022/05/28 08:43:31;;;;;;;6.90;1.70;;;;;;;15.34;49.23;100816.97;5019567;28;20571;-67
2022/05/28 08:45:58;;;;;;;;;;;;;;;15.37;48.76;100815.00;5025597;28;20057;-67
2022/05/28 08:48:34;;;;;;;5.75;2.33;;;;;;;15.39;48.90;100814.91;5021407;28;20364;-68
2022/05/28 08:51:08;;;;;;;6.47;1.95;;;;;;;15.43;48.99;100805.72;5025983;28;20164;-69
2022/05/28 08:53:43;;;;;;;5.47;1.83;;;;;;;15.19;49.77;100805.41;5028700;28;20233;-67
2022/05/28 08:56:15;;;;;;;8.40;1.83;;;;;;;15.35;49.73;100802.69;5022675;28;20084;-69
2022/05/28 08:58:45;;;;;;;4.40;1.52;;;;;;;15.39;49.46;100794.41;5011217;28;20136;-68
2022/05/28 09:01:21;;;;;;;6.47;1.50;;;;;;;15.51;48.55;100789.25;5018111;28;20500;-67
2022/05/28 09:04:01;;;;;;;7.30;2.50;;;;;;;15.45;48.51;100801.16;5020985;28;20099;-68
2022/05/28 09:06:37;;;;;;;5.05;1.67;;;;;;;15.38;49.88;100798.03;5027737;28;20121;-68
2022/05/28 09:09:07;;;;;;;6.18;1.58;;;;;;;15.12;49.76;100776.50;5025477;28;20053;-68
2022/05/28 09:11:39;;;;;;;5.00;1.50;;;;;;;15.18;49.99;100802.81;5021819;28;20059;-67
2022/05/28 09:14:18;;;;;;;3.80;1.50;;;;;;;15.11;49.72;100801.50;5019344;28;20490;-67
2022/05/28 09:16:46;;;;;;;3.63;1.52;;;;;;;15.18;49.51;100802.81;5019527;28;20053;-69
2022/05/28 09:19:21;;;;;;;5.40;1.42;;;;;;;15.29;49.99;100782.56;5023280;28;20044;-68
2022/05/28 09:21:48;;;;;;;5.85;1.20;;;;;;;15.52;48.39;100789.19;5016079;28;20073;-68
2022/05/28 09:24:24;;;;;;;2.72;1.77;;;;;;;15.82;48.08;100785.59;5034725;28;20072;-68
2022/05/28 09:27:00;;;;;;;;;;;;;;;16.03;46.44;100784.25;5023828;28;20159;-67
2022/05/28 09:29:57;;;;;;;5.32;1.45;;;;;;;16.00;48.25;100784.44;5023039;28;19984;-67
2022/05/28 09:32:41;;;;;;;6.00;1.35;;;;;;;15.84;49.13;100781.88;5024887;28;20045;-67
2022/05/28 09:35:30;;;;;;;3.03;0.95;;;;;;;15.77;47.87;100784.06;5020218;28;20385;-67
2022/05/28 09:38:48;;;;;;;6.53;1.50;;;;;;;15.60;48.38;100780.72;5023901;28;20046;-68
2022/05/28 09:41:34;;;;;;;7.60;1.33;;;;;;;15.47;48.08;100772.56;5022652;28;20045;-68
2022/05/28 09:44:28;;;;;;;3.05;1.25;;;;;;;15.83;47.15;100771.28;5022313;28;20069;-68
2022/05/28 09:47:12;;;;;;;5.95;1.67;;;;;;;16.14;44.91;100765.72;5015940;28;20088;-68
2022/05/28 09:49:50;;;;;;;3.65;1.20;;;;;;;16.06;43.60;100760.84;5023755;28;20140;-68
2022/05/28 09:54:16;;;;;;;2.72;1.13;;;;;;;15.92;42.65;100754.66;5030305;28;20065;-68
2022/05/28 09:55:23;;;;;;;2.45;1.10;;;;;;;16.13;41.79;100761.31;5028105;28;20056;-68
2022/05/28 09:58:03;;;;;;;2.47;1.33;;;;;;;16.54;41.07;100753.28;5022100;28;20053;-69
2022/05/28 10:00:30;;;;;;;2.38;1.40;;;;;;;16.81;41.86;100748.81;5028452;28;20132;-68
2022/05/28 10:05:57;;;;;;;4.80;1.20;;;;;;;16.93;42.60;100749.81;4995653;28;20140;-68
2022/05/28 10:08:33;;;;;;;4.20;1.23;;;;;;;16.88;43.08;100746.56;5022464;28;20116;-68
2022/05/28 10:11:02;;;;;;;3.75;1.42;;;;;;;17.01;42.56;100747.44;5022446;28;20138;-68
2022/05/28 10:13:31;;;;;;;2.90;1.15;;;;;;;17.14;41.06;100739.47;5006852;28;20136;-68
2022/05/28 10:16:00;;;;;;;3.55;1.88;;;;;;;17.09;41.65;100750.47;5022131;28;20124;-67
2022/05/28 10:18:40;;;;;;;1.25;1.05;;;;;;;16.81;41.22;100746.16;5018557;28;20049;-68
2022/05/28 10:21:17;;;;;;;3.83;1.10;;;;;;;16.71;41.28;100738.81;5021408;28;20046;-68
2022/05/28 10:23:53;;;;;;;2.88;1.10;;;;;;;16.78;40.45;100735.66;5029195;28;20464;-70
2022/05/28 10:26:38;;;;;;;4.07;1.30;;;;;;;16.92;39.48;100742.75;5017758;28;20045;-68
2022/05/28 10:29:30;;;;;;;1.98;1.05;;;;;;;17.09;38.34;100737.09;5021113;28;20470;-67
2022/05/28 10:32:00;;;;;;;1.95;1.00;;;;;;;17.27;37.47;100737.66;5012594;28;20140;-70
2022/05/28 10:34:35;;;;;;;2.70;1.15;;;;;;;17.35;38.89;100732.59;5028591;28;20053;-74
2022/05/28 10:37:10;;;;;;;;;;;;;;;17.25;37.52;100734.22;5021059;28;20053;-75
2022/05/28 10:39:37;;;;;;;2.60;0.85;;;;;;;17.24;36.51;100726.28;5027455;28;20347;-69
2022/05/28 10:42:07;;;;;;;3.95;0.95;;;;;;;17.47;36.93;100726.38;5024284;28;20561;-68
2022/05/28 10:44:34;;;;;;;2.85;0.85;;;;;;;17.75;35.72;100724.50;5022510;28;20592;-69
2022/05/28 10:47:19;;;;;;;2.55;1.00;;;;;;;17.66;35.69;100701.88;5021630;28;20130;-71
2022/05/28 10:50:02;;;;;;;3.60;1.20;;;;;;;17.34;35.85;100728.22;5027484;28;20127;-70
2022/05/28 10:52:53;;;;;;;0.90;0.70;;;;;;;17.13;35.87;100722.56;5029913;28;20069;-71
2022/05/28 10:55:37;;;;;;;1.98;0.90;;;;;;;16.84;34.89;100711.16;5029018;28;20124;-71
2022/05/28 10:58:31;;;;;;;2.35;1.08;;;;;;;17.10;34.09;100716.56;5025887;28;20054;-69
2022/05/28 11:01:04;;;;;;;2.20;0.82;;;;;;;17.46;32.72;100710.47;5026893;28;20120;-70
2022/05/28 11:04:04;;;;;;;1.48;0.90;;;;;;;17.76;34.74;100705.63;5024575;28;20144;-69
2022/05/28 11:06:41;;;;;;;2.38;0.90;;;;;;;17.70;35.44;100694.50;5028505;28;20056;-76
2022/05/28 11:09:29;;;;;;;4.55;1.10;;;;;;;17.84;36.25;100705.06;5023236;28;20084;-72
2022/05/28 11:12:30;;;;;;;2.88;1.23;;;;;;;17.96;33.56;100697.94;5021804;28;20534;-74
2022/05/28 11:15:07;;;;;;;0.88;0.70;;;;;;;18.19;32.13;100702.50;5017372;28;20498;-70
2022/05/28 11:18:01;;;;;;;3.38;0.90;;;;;;;18.28;31.52;100700.94;5028395;28;20045;-75
2022/05/28 11:20:40;;;;;;;2.78;0.90;;;;;;;18.25;32.22;100699.38;5029054;28;20140;-74
2022/05/28 11:23:16;;;;;;;1.58;1.02;;;;;;;18.37;31.45;100702.97;5025678;28;20042;-74
2022/05/28 11:26:12;;;;;;;1.92;0.90;;;;;;;18.34;32.06;100695.13;5031230;28;20068;-73
2022/05/28 11:29:06;;;;;;;2.70;1.02;;;;;;;18.36;32.24;100698.56;5029676;28;20499;-73
2022/05/28 11:31:54;;;;;;;2.00;1.10;;;;;;;18.41;31.44;100689.22;5029899;28;20120;-75
2022/05/28 11:34:27;;;;;;;2.10;1.05;;;;;;;18.74;32.25;100687.66;5027067;28;20425;-73
2022/05/28 11:37:17;;;;;;;2.97;1.00;;;;;;;18.75;31.89;100678.63;5030407;28;20457;-73
2022/05/28 11:40:22;;;;;;;3.40;1.00;;;;;;;18.69;30.94;100687.16;5029851;28;21030;-73
2022/05/28 11:43:05;;;;;;;2.42;0.88;;;;;;;18.74;31.26;100667.03;5021708;28;20508;-74
2022/05/28 11:46:02;;;;;;;2.60;1.05;;;;;;;19.21;29.34;100690.19;5026177;28;20409;-72
2022/05/28 11:52:11;;;;;;;3.92;0.80;;;;;;;19.25;29.47;100664.84;5027304;28;20099;-72
2022/05/28 11:54:45;;;;;;;3.25;1.10;;;;;;;19.03;29.96;100664.81;5027520;28;20109;-71